Time;durP1;ratioP1;P1;durP2;ratioP2;P2;SDS_P1;SDS_P2;PMS_P1;PMS_P2;Temp;Humidity;BMP_temperature;BMP_pressure;BME280_temperature;BME280_humidity;BME280_pressure;Samples;Min_cycle;Max_cycle;Signal;HPM_P1;HPM_P2
2023/01/08 00:00:04;;;;;;;0.10;0.10;;;;;;;6.31;100.00;98463.53;6182772;23;20004;-76
2023/01/08 00:02:29;;;;;;;0.00;0.00;;;;;;;6.28;100.00;98460.28;6184454;23;20035;-78
2023/01/08 00:04:55;;;;;;;0.00;0.00;;;;;;;6.24;100.00;98453.00;6183886;23;20427;-77
2023/01/08 00:07:20;;;;;;;0.10;0.10;;;;;;;6.34;100.00;98450.19;6212247;23;20008;-79
2023/01/08 00:09:49;;;;;;;0.10;0.10;;;;;;;6.46;100.00;98447.91;6181335;23;20869;-79
2023/01/08 00:12:15;;;;;;;0.00;0.00;;;;;;;6.52;100.00;98443.22;6184927;23;20062;-78
2023/01/08 00:14:40;;;;;;;0.00;0.00;;;;;;;6.61;100.00;98473.28;6181701;23;20009;-80
2023/01/08 00:17:08;;;;;;;0.00;0.00;;;;;;;6.63;100.00;98471.91;6210606;23;20088;-79
2023/01/08 00:19:33;;;;;;;0.05;0.05;;;;;;;6.63;100.00;98471.09;6213271;23;20005;-79
2023/01/08 00:21:58;;;;;;;0.00;0.00;;;;;;;6.53;100.00;98454.91;6183466;23;20013;-80
2023/01/08 00:24:24;;;;;;;0.00;0.00;;;;;;;6.46;100.00;98449.81;6186143;23;20032;-78
2023/01/08 00:26:49;;;;;;;0.00;0.00;;;;;;;6.41;100.00;98442.53;6181757;23;20094;-79
2023/01/08 00:29:15;;;;;;;0.00;0.00;;;;;;;6.36;100.00;98426.28;6161279;23;20017;-79
2023/01/08 00:31:44;;;;;;;0.00;0.00;;;;;;;6.26;100.00;98415.53;6180363;23;20058;-81
2023/01/08 00:34:12;;;;;;;0.00;0.00;;;;;;;6.25;100.00;98419.31;6211150;23;20034;-79
2023/01/08 00:36:39;;;;;;;0.00;0.00;;;;;;;6.18;100.00;98408.03;6209741;23;20031;-78
2023/01/08 00:39:06;;;;;;;0.10;0.10;;;;;;;6.18;100.00;98427.03;6207478;23;20031;-78
2023/01/08 00:41:32;;;;;;;0.00;0.00;;;;;;;6.17;100.00;98414.53;6183252;23;20001;-79
2023/01/08 00:43:57;;;;;;;0.10;0.10;;;;;;;6.25;100.00;98419.31;6204955;23;20091;-79
2023/01/08 00:46:23;;;;;;;0.00;0.00;;;;;;;6.30;100.00;98413.84;6208095;23;20066;-79
2023/01/08 00:48:48;;;;;;;0.00;0.00;;;;;;;6.33;100.00;98434.19;6209415;23;20462;-79
2023/01/08 00:51:14;;;;;;;0.00;0.00;;;;;;;6.36;100.00;98422.75;6207247;23;20032;-79
2023/01/08 00:53:39;;;;;;;0.03;0.03;;;;;;;6.32;100.00;98414.38;6184292;23;20313;-79
2023/01/08 00:56:07;;;;;;;0.00;0.00;;;;;;;6.28;100.00;98405.19;6180003;23;20020;-80
2023/01/08 00:58:35;;;;;;;0.00;0.00;;;;;;;6.22;100.00;98401.72;6210485;23;20011;-80
2023/01/08 01:01:04;;;;;;;0.00;0.00;;;;;;;6.20;100.00;98392.25;6207963;23;20267;-80
2023/01/08 01:03:29;;;;;;;0.00;0.00;;;;;;;6.24;100.00;98393.28;6210338;23;20222;-79
2023/01/08 01:06:02;;;;;;;0.00;0.00;;;;;;;6.18;100.00;98389.03;6209834;23;20024;-80
2023/01/08 01:08:27;;;;;;;0.00;0.00;;;;;;;6.21;100.00;98396.59;6208037;23;20012;-81
2023/01/08 01:10:53;;;;;;;0.00;0.00;;;;;;;6.25;100.00;98411.19;6184549;23;20055;-77
2023/01/08 01:13:18;;;;;;;0.00;0.00;;;;;;;6.21;100.00;98404.72;6202631;23;20005;-79
2023/01/08 01:15:44;;;;;;;0.00;0.00;;;;;;;6.19;100.00;98396.03;6161802;23;20087;-78
2023/01/08 01:18:10;;;;;;;0.00;0.00;;;;;;;6.35;100.00;98402.97;6179516;23;20382;-79
2023/01/08 01:20:35;;;;;;;0.00;0.00;;;;;;;6.50;100.00;98406.59;6184227;23;20008;-80
2023/01/08 01:23:02;;;;;;;0.00;0.00;;;;;;;6.63;100.00;98412.16;6208430;23;20024;-79
2023/01/08 01:25:28;;;;;;;0.00;0.00;;;;;;;6.71;100.00;98416.13;6209891;23;20027;-78
2023/01/08 01:27:53;;;;;;;0.00;0.00;;;;;;;6.75;100.00;98392.72;6209350;23;20004;-77
2023/01/08 01:30:19;;;;;;;0.10;0.10;;;;;;;6.84;100.00;98392.09;6202674;23;20005;-78
2023/01/08 01:32:44;;;;;;;0.00;0.00;;;;;;;6.92;100.00;98389.53;6208095;23;20000;-78
2023/01/08 01:35:09;;;;;;;0.00;0.00;;;;;;;7.11;100.00;98407.75;6180143;23;20058;-77
2023/01/08 01:37:35;;;;;;;0.00;0.00;;;;;;;7.11;100.00;98394.16;6183636;23;20450;-78
2023/01/08 01:40:01;;;;;;;0.00;0.00;;;;;;;7.18;100.00;98405.47;6183036;23;20009;-79
2023/01/08 01:42:44;;;;;;;0.00;0.00;;;;;;;7.14;100.00;98386.25;6180594;23;20012;-80
2023/01/08 01:45:21;;;;;;;0.00;0.00;;;;;;;7.30;100.00;98414.03;6187988;23;20020;-81
2023/01/08 01:48:11;;;;;;;0.10;0.10;;;;;;;7.21;100.00;98404.09;6202119;23;20411;-79
2023/01/08 01:50:45;;;;;;;0.00;0.00;;;;;;;6.99;100.00;98397.31;6192849;23;20017;-82
2023/01/08 01:53:48;;;;;;;0.00;0.00;;;;;;;6.13;100.00;98417.00;6210304;23;20005;-82
2023/01/08 01:56:23;;;;;;;0.10;0.10;;;;;;;4.91;100.00;98376.91;6169474;23;20032;-84
2023/01/08 01:58:48;;;;;;;;;;;;;;;5.05;100.00;98407.72;6218977;23;20004;-86
2023/01/08 02:01:22;;;;;;;0.00;0.00;;;;;;;5.05;100.00;98413.16;6217673;23;20341;-85
2023/01/08 02:03:50;;;;;;;0.10;0.10;;;;;;;4.98;100.00;98371.19;6220463;23;20064;-85
2023/01/08 02:06:54;;;;;;;;;;;;;;;;;;;;;
2023/01/08 02:09:54;;;;;;;0.10;0.10;;;;;;;5.09;100.00;98356.50;6222648;23;20036;-88
2023/01/08 02:12:38;;;;;;;0.00;0.00;;;;;;;5.03;100.00;98338.66;6208196;23;20361;-88
2023/01/08 02:15:20;;;;;;;0.00;0.00;;;;;;;5.20;100.00;98358.06;6217463;23;20012;-88
2023/01/08 02:18:12;;;;;;;0.00;0.00;;;;;;;5.29;100.00;98381.84;6220261;23;20009;-86
2023/01/08 02:21:22;;;;;;;;;;;;;;;;;;;;;
2023/01/08 02:24:11;;;;;;;0.00;0.00;;;;;;;5.07;100.00;98389.28;6225608;23;20028;-91
2023/01/08 02:26:54;;;;;;;;;;;;;;;;;;;;;
2023/01/08 02:30:00;;;;;;;0.00;0.00;;;;;;;4.98;100.00;98368.47;6225184;23;20021;-88
2023/01/08 02:32:49;;;;;;;0.00;0.00;;;;;;;4.95;100.00;98369.84;6223372;23;20004;-89
2023/01/08 02:35:40;;;;;;;0.00;0.00;;;;;;;5.02;100.00;98366.81;6223583;23;20004;-90
2023/01/08 02:38:22;;;;;;;0.10;0.10;;;;;;;5.18;100.00;98372.97;6226362;23;20091;-92
2023/01/08 02:41:01;;;;;;;0.10;0.10;;;;;;;5.38;100.00;98389.09;6228220;23;20011;-91
2023/01/08 02:43:52;;;;;;;0.00;0.00;;;;;;;5.36;100.00;98393.16;6226326;23;20084;-93
2023/01/08 02:46:40;;;;;;;0.00;0.00;;;;;;;5.20;100.00;98373.50;6209759;23;20000;-94
2023/01/08 02:49:20;;;;;;;0.00;0.00;;;;;;;5.13;100.00;98362.97;6207477;23;20011;-90
2023/01/08 02:51:59;;;;;;;0.10;0.10;;;;;;;5.19;100.00;98366.47;6230308;23;20040;-89
2023/01/08 02:55:25;;;;;;;0.00;0.00;;;;;;;5.14;100.00;98388.16;6204606;23;20031;-89
2023/01/08 02:58:55;;;;;;;0.00;0.00;;;;;;;5.28;100.00;98410.03;6224308;23;20000;-89
2023/01/08 03:05:15;;;;;;;;;;;;;;;;;;;;;
2023/01/08 03:08:01;;;;;;;0.00;0.00;;;;;;;5.02;100.00;98375.78;6224133;23;20040;-87
2023/01/08 03:10:44;;;;;;;0.00;0.00;;;;;;;5.12;100.00;98368.66;6203160;23;20020;-88
2023/01/08 03:13:23;;;;;;;0.10;0.10;;;;;;;5.05;100.00;98340.00;6219333;23;20001;-87
2023/01/08 03:16:13;;;;;;;0.00;0.00;;;;;;;5.12;100.00;98352.41;6221665;23;20004;-87
2023/01/08 03:18:51;;;;;;;0.00;0.00;;;;;;;4.87;100.00;98325.19;6227359;23;20004;-88
2023/01/08 03:21:37;;;;;;;0.10;0.10;;;;;;;4.88;100.00;98331.44;6222399;23;20042;-86
2023/01/08 03:24:07;;;;;;;0.00;0.00;;;;;;;4.87;100.00;98346.06;6222759;23;20015;-85
2023/01/08 03:26:57;;;;;;;0.00;0.00;;;;;;;4.63;100.00;98327.78;6220522;23;20011;-85
2023/01/08 03:29:43;;;;;;;0.00;0.00;;;;;;;4.59;100.00;98329.41;6221644;23;20008;-84
2023/01/08 03:32:17;;;;;;;0.00;0.00;;;;;;;4.41;100.00;98311.06;6219877;23;20027;-83
2023/01/08 03:34:47;;;;;;;0.00;0.00;;;;;;;4.24;100.00;98285.19;6219095;23;20000;-83
2023/01/08 03:37:34;;;;;;;0.00;0.00;;;;;;;4.30;100.00;98294.88;6214325;23;20005;-82
2023/01/08 03:40:16;;;;;;;0.00;0.00;;;;;;;4.18;100.00;98292.50;6215689;23;20012;-84
2023/01/08 03:42:57;;;;;;;;;;;;;;;;;;;;;
2023/01/08 03:45:47;;;;;;;0.00;0.00;;;;;;;4.26;100.00;98326.28;6215835;22;20044;-85
2023/01/08 03:48:26;;;;;;;0.10;0.10;;;;;;;4.10;100.00;98306.56;6219549;23;20016;-85
2023/01/08 03:50:56;;;;;;;0.00;0.00;;;;;;;4.12;100.00;98309.03;6219351;23;20975;-86
2023/01/08 03:53:46;;;;;;;0.00;0.00;;;;;;;4.27;100.00;98333.31;6221521;23;20000;-85
2023/01/08 03:56:19;;;;;;;0.00;0.00;;;;;;;4.02;100.00;98318.78;6220541;23;19993;-85
2023/01/08 03:59:09;;;;;;;0.00;0.00;;;;;;;4.08;100.00;98327.69;6196228;23;20012;-87
2023/01/08 04:01:41;;;;;;;0.00;0.00;;;;;;;4.01;100.00;98319.06;6202843;23;20015;-82
2023/01/08 04:04:22;;;;;;;0.00;0.00;;;;;;;3.98;100.00;98319.59;6215773;23;20429;-82
2023/01/08 04:06:47;;;;;;;0.00;0.00;;;;;;;3.87;100.00;98316.13;6192552;23;20013;-82
2023/01/08 04:09:22;;;;;;;0.00;0.00;;;;;;;4.02;100.00;98342.31;6212653;23;20008;-83
2023/01/08 04:11:53;;;;;;;0.00;0.00;;;;;;;3.99;100.00;98343.66;6215458;23;20070;-83
2023/01/08 04:14:39;;;;;;;0.10;0.10;;;;;;;3.92;100.00;98326.13;6189893;23;19988;-83
2023/01/08 04:17:15;;;;;;;0.00;0.00;;;;;;;3.95;100.00;98310.13;6196698;23;20009;-83
2023/01/08 04:20:08;;;;;;;0.10;0.10;;;;;;;4.08;100.00;98302.56;6213747;23;20016;-85
2023/01/08 04:22:48;;;;;;;0.00;0.00;;;;;;;4.28;100.00;98305.19;6218471;23;20019;-85
2023/01/08 04:25:32;;;;;;;0.00;0.00;;;;;;;4.41;100.00;98311.91;6221553;23;20005;-85
2023/01/08 04:28:10;;;;;;;0.10;0.10;;;;;;;4.49;100.00;98313.22;6196978;23;20015;-86
2023/01/08 04:30:56;;;;;;;0.00;0.00;;;;;;;4.64;100.00;98320.44;6220902;23;20007;-86
2023/01/08 04:33:21;;;;;;;0.00;0.00;;;;;;;4.68;100.00;98302.56;6217050;23;20013;-86
2023/01/08 04:36:05;;;;;;;0.00;0.00;;;;;;;4.85;100.00;98321.97;6216821;23;19984;-87
2023/01/08 04:38:48;;;;;;;0.00;0.00;;;;;;;4.88;100.00;98315.19;6220601;23;20420;-85
2023/01/08 04:41:23;;;;;;;0.10;0.10;;;;;;;4.95;100.00;98318.41;6218820;23;20375;-85
2023/01/08 04:43:48;;;;;;;0.00;0.00;;;;;;;4.94;100.00;98308.63;6218938;23;20004;-83
2023/01/08 04:46:25;;;;;;;0.00;0.00;;;;;;;5.05;100.00;98312.91;6193133;23;20016;-85
2023/01/08 04:49:01;;;;;;;;;;;;;;;;;;;;;
2023/01/08 04:51:46;;;;;;;0.00;0.00;;;;;;;4.85;100.00;98289.47;6220878;23;20470;-87
2023/01/08 04:54:24;;;;;;;;;;;;;;;;;;;;;
2023/01/08 04:57:11;;;;;;;0.00;0.00;;;;;;;4.68;100.00;98281.69;6220677;23;20031;-87
2023/01/08 04:59:36;;;;;;;0.00;0.00;;;;;;;4.48;100.00;98265.56;6222164;23;20005;-87
2023/01/08 05:02:02;;;;;;;0.00;0.00;;;;;;;4.52;100.00;98291.00;6224273;23;20047;-88
2023/01/08 05:04:35;;;;;;;0.10;0.10;;;;;;;4.42;100.00;98274.81;6193985;23;20019;-86
2023/01/08 05:07:11;;;;;;;;;;;;;;;;;;;;;
2023/01/08 05:09:46;;;;;;;0.05;0.05;;;;;;;4.33;100.00;98261.84;6218079;23;20296;-87
2023/01/08 05:12:15;;;;;;;0.10;0.10;;;;;;;4.39;100.00;98269.97;6170391;23;19999;-87
2023/01/08 05:14:58;;;;;;;0.00;0.00;;;;;;;4.46;100.00;98265.06;6218250;23;20004;-90
2023/01/08 05:17:41;;;;;;;0.10;0.10;;;;;;;4.49;100.00;98275.31;6199853;23;20028;-89
2023/01/08 05:20:27;;;;;;;0.00;0.00;;;;;;;4.45;100.00;98274.25;6222057;23;20072;-90
2023/01/08 05:22:57;;;;;;;0.00;0.00;;;;;;;4.52;100.00;98269.34;6223738;23;20008;-91
2023/01/08 05:25:48;;;;;;;0.10;0.10;;;;;;;4.48;100.00;98268.28;6198763;23;20004;-90
2023/01/08 05:28:19;;;;;;;0.00;0.00;;;;;;;4.58;100.00;98279.06;6196667;23;20973;-90
2023/01/08 05:31:10;;;;;;;0.00;0.00;;;;;;;4.61;100.00;98277.69;6199096;23;20039;-91
2023/01/08 05:33:46;;;;;;;0.00;0.00;;;;;;;4.51;100.00;98273.13;6208386;23;20423;-89
2023/01/08 05:36:35;;;;;;;0.00;0.00;;;;;;;4.25;100.00;98246.22;6221846;23;20428;-89
2023/01/08 05:39:19;;;;;;;;;;;;;;;;;;;;;
2023/01/08 05:42:02;;;;;;;;;;;;;;;;;;;;;
2023/01/08 05:44:35;;;;;;;0.00;0.00;;;;;;;4.36;100.00;98265.91;6224694;23;20038;-89
2023/01/08 05:47:31;;;;;;;0.00;0.00;;;;;;;4.27;100.00;98246.75;6194917;22;20015;-88
2023/01/08 05:50:02;;;;;;;0.00;0.00;;;;;;;4.30;100.00;98223.72;6220779;23;20497;-88
2023/01/08 05:56:30;;;;;;;0.10;0.10;;;;;;;4.29;100.00;98241.88;6148231;23;20114;-88
2023/01/08 05:59:05;;;;;;;0.00;0.00;;;;;;;4.33;100.00;98248.31;6091144;23;20049;-86
2023/01/08 06:01:42;;;;;;;0.00;0.00;;;;;;;4.25;100.00;98248.09;6137219;23;20009;-83
2023/01/08 06:04:13;;;;;;;0.10;0.10;;;;;;;4.26;100.00;98258.63;6162203;23;20009;-87
2023/01/08 06:07:04;;;;;;;0.10;0.10;;;;;;;4.25;100.00;98264.31;6144133;23;20005;-90
2023/01/08 06:09:32;;;;;;;0.00;0.00;;;;;;;4.12;100.00;98238.72;6118452;23;20472;-87
2023/01/08 06:12:27;;;;;;;0.10;0.10;;;;;;;4.02;100.00;98245.75;6176814;23;20017;-87
2023/01/08 06:15:27;;;;;;;0.00;0.00;;;;;;;4.18;100.00;98270.84;6220047;23;20428;-88
2023/01/08 06:18:02;;;;;;;;;;;;;;;;;;;;;
2023/01/08 06:20:31;;;;;;;0.00;0.00;;;;;;;3.98;100.00;98233.06;6239780;23;20004;-86
2023/01/08 06:23:08;;;;;;;0.00;0.00;;;;;;;3.98;100.00;98233.88;6235540;23;20000;-86
2023/01/08 06:25:50;;;;;;;0.00;0.00;;;;;;;4.00;100.00;98234.41;6238726;23;20000;-85
2023/01/08 06:28:23;;;;;;;0.10;0.10;;;;;;;4.19;100.00;98255.41;6223212;23;20000;-87
2023/01/08 06:30:52;;;;;;;0.00;0.00;;;;;;;4.33;100.00;98264.56;6223090;23;20031;-88
2023/01/08 06:33:50;;;;;;;0.10;0.10;;;;;;;4.45;100.00;98274.25;6197044;23;20040;-86
2023/01/08 06:36:31;;;;;;;0.00;0.00;;;;;;;4.28;100.00;98237.53;6221276;23;20004;-86
2023/01/08 06:39:05;;;;;;;0.00;0.00;;;;;;;4.51;100.00;98255.03;6227948;23;19996;-89
2023/01/08 06:41:33;;;;;;;0.00;0.00;;;;;;;4.58;100.00;98251.97;6227291;23;20029;-87
2023/01/08 06:44:24;;;;;;;0.00;0.00;;;;;;;4.60;100.00;98236.28;6200599;23;20013;-80
2023/01/08 06:46:49;;;;;;;0.00;0.00;;;;;;;4.78;100.00;98244.84;6212373;23;20005;-79
2023/01/08 06:49:16;;;;;;;0.00;0.00;;;;;;;4.86;100.00;98247.75;6212273;23;20099;-79
2023/01/08 06:51:41;;;;;;;0.03;0.03;;;;;;;4.83;100.00;98236.66;6206320;23;20011;-79
2023/01/08 06:54:07;;;;;;;0.00;0.00;;;;;;;4.82;100.00;98229.63;6211134;23;19993;-79
2023/01/08 06:56:35;;;;;;;0.00;0.00;;;;;;;4.69;100.00;98226.47;6211970;23;20075;-78
2023/01/08 06:59:12;;;;;;;;;;;;;;;;;;;;;
2023/01/08 07:01:58;;;;;;;0.10;0.10;;;;;;;4.54;100.00;98221.16;6214536;23;20091;-80
2023/01/08 07:04:24;;;;;;;0.00;0.00;;;;;;;4.45;100.00;98220.13;6213230;23;20057;-83
2023/01/08 07:06:49;;;;;;;0.00;0.00;;;;;;;4.46;100.00;98227.16;6190911;23;20015;-78
2023/01/08 07:09:15;;;;;;;0.00;0.00;;;;;;;4.47;100.00;98221.47;6212343;23;20008;-81
2023/01/08 07:11:43;;;;;;;0.10;0.10;;;;;;;4.42;100.00;98204.44;6215491;23;20020;-80
2023/01/08 07:14:11;;;;;;;0.00;0.00;;;;;;;4.45;100.00;98212.00;6212825;23;20004;-81
2023/01/08 07:16:37;;;;;;;0.00;0.00;;;;;;;4.41;100.00;98187.41;6213588;23;20040;-80
2023/01/08 07:19:02;;;;;;;0.00;0.00;;;;;;;4.41;100.00;98176.59;6190176;23;20012;-79
2023/01/08 07:21:33;;;;;;;0.00;0.00;;;;;;;4.56;100.00;98200.03;6197925;23;20331;-81
2023/01/08 07:23:58;;;;;;;0.10;0.10;;;;;;;4.54;100.00;98194.06;6191393;23;20012;-79
2023/01/08 07:26:42;;;;;;;0.00;0.00;;;;;;;4.60;100.00;98184.84;6216888;23;20001;-83
2023/01/08 07:29:13;;;;;;;0.00;0.00;;;;;;;4.74;100.00;98186.91;6218265;23;20028;-82
2023/01/08 07:34:42;;;;;;;0.00;0.00;;;;;;;4.72;100.00;98170.97;6219003;23;20051;-83
2023/01/08 07:37:13;;;;;;;0.00;0.00;;;;;;;4.59;100.00;98156.16;6192686;23;20028;-83
2023/01/08 07:39:43;;;;;;;0.00;0.00;;;;;;;4.52;100.00;98151.06;6213754;23;20438;-83
2023/01/08 07:42:11;;;;;;;0.00;0.00;;;;;;;4.39;100.00;98123.84;6217622;23;19997;-82
2023/01/08 07:44:36;;;;;;;0.00;0.00;;;;;;;4.42;100.00;98147.63;6215802;23;20019;-81
2023/01/08 07:47:02;;;;;;;0.00;0.00;;;;;;;4.46;100.00;98145.97;6211566;23;20032;-79
2023/01/08 07:49:27;;;;;;;0.10;0.10;;;;;;;4.71;100.00;98169.34;6188635;23;20009;-80
2023/01/08 07:51:52;;;;;;;0.10;0.10;;;;;;;4.81;100.00;98152.19;6185400;23;20039;-80
2023/01/08 07:54:18;;;;;;;0.10;0.10;;;;;;;5.02;100.00;98169.91;6183955;23;20019;-81
2023/01/08 07:56:43;;;;;;;0.00;0.00;;;;;;;5.11;100.00;98171.97;6187723;23;20020;-79
2023/01/08 07:59:09;;;;;;;0.10;0.10;;;;;;;5.05;100.00;98163.09;6164437;23;20009;-80
2023/01/08 08:01:37;;;;;;;0.00;0.00;;;;;;;5.08;100.00;98167.94;6214524;23;20339;-81
2023/01/08 08:04:02;;;;;;;0.00;0.00;;;;;;;4.95;100.00;98139.63;6212030;23;19996;-80
2023/01/08 08:06:38;;;;;;;0.10;0.10;;;;;;;4.85;100.00;98137.00;6215964;23;20054;-79
2023/01/08 08:09:24;;;;;;;0.10;0.10;;;;;;;4.85;100.00;98126.19;6189207;23;20004;-78
2023/01/08 08:11:49;;;;;;;0.10;0.10;;;;;;;4.99;100.00;98131.72;6218596;23;20019;-79
2023/01/08 08:14:17;;;;;;;0.10;0.10;;;;;;;4.88;100.00;98103.94;6189991;23;20423;-78
2023/01/08 08:16:42;;;;;;;0.00;0.00;;;;;;;4.88;100.00;98099.31;6215963;22;20004;-80
2023/01/08 08:19:07;;;;;;;0.00;0.00;;;;;;;4.99;100.00;98102.72;6211825;23;20004;-79
2023/01/08 08:21:33;;;;;;;0.00;0.00;;;;;;;4.99;100.00;98102.72;6208625;23;20014;-81
2023/01/08 08:23:58;;;;;;;0.10;0.10;;;;;;;5.03;100.00;98092.94;6187300;23;20004;-80
2023/01/08 08:26:24;;;;;;;0.10;0.10;;;;;;;5.01;100.00;98081.59;6208995;23;20459;-80
2023/01/08 08:28:49;;;;;;;0.00;0.00;;;;;;;5.06;100.00;98067.97;6160437;23;20084;-79
2023/01/08 08:31:15;;;;;;;0.10;0.10;;;;;;;5.07;100.00;98064.19;6183023;23;20111;-81
2023/01/08 08:33:40;;;;;;;0.00;0.00;;;;;;;5.19;100.00;98076.53;6188282;23;20083;-78
2023/01/08 08:36:06;;;;;;;0.10;0.10;;;;;;;5.25;100.00;98070.75;6211693;23;20092;-79
2023/01/08 08:38:38;;;;;;;0.00;0.00;;;;;;;5.38;100.00;98073.88;6208467;23;20062;-81
2023/01/08 08:41:07;;;;;;;0.00;0.00;;;;;;;5.55;100.00;98068.78;6211013;23;20020;-79
2023/01/08 08:43:32;;;;;;;0.00;0.00;;;;;;;5.68;100.00;98063.72;6203852;23;20074;-78
2023/01/08 08:45:57;;;;;;;0.00;0.00;;;;;;;5.72;100.00;98057.47;6181553;23;20404;-78
2023/01/08 08:48:23;;;;;;;0.00;0.00;;;;;;;5.84;100.00;98069.75;6172238;23;20435;-76
2023/01/08 08:50:48;;;;;;;0.03;0.03;;;;;;;5.74;100.00;98066.09;6207858;23;20479;-79
2023/01/08 08:53:14;;;;;;;0.00;0.00;;;;;;;5.80;100.00;98066.00;6202259;23;20012;-77
2023/01/08 08:55:44;;;;;;;0.00;0.00;;;;;;;5.67;100.00;98043.16;6204370;23;20008;-76
2023/01/08 08:58:14;;;;;;;0.00;0.00;;;;;;;5.70;100.00;98050.72;6207932;23;20073;-78
2023/01/08 09:00:41;;;;;;;0.00;0.00;;;;;;;5.69;100.00;98055.31;6202326;23;19996;-77
2023/01/08 09:03:13;;;;;;;0.10;0.10;;;;;;;5.77;100.00;98060.09;6180917;23;20005;-78
2023/01/08 09:05:39;;;;;;;0.10;0.10;;;;;;;5.94;100.00;98075.03;6203426;23;20020;-78
2023/01/08 09:08:04;;;;;;;0.00;0.00;;;;;;;5.98;100.00;98070.69;6182935;23;20024;-78
2023/01/08 09:10:30;;;;;;;0.00;0.00;;;;;;;6.14;100.00;98079.41;6184074;23;20420;-77
2023/01/08 09:12:55;;;;;;;0.00;0.00;;;;;;;6.22;100.00;98059.75;6179370;23;20004;-77
2023/01/08 09:15:21;;;;;;;0.00;0.00;;;;;;;6.24;100.00;98051.31;6209404;23;20009;-78
2023/01/08 09:17:55;;;;;;;0.00;0.00;;;;;;;6.26;100.00;98054.53;6205825;23;20869;-78
2023/01/08 09:20:21;;;;;;;0.00;0.00;;;;;;;6.17;100.00;98059.03;6210726;23;20001;-79
2023/01/08 09:22:47;;;;;;;0.10;0.10;;;;;;;6.10;100.00;98065.63;6180788;23;20363;-76
2023/01/08 09:25:12;;;;;;;0.00;0.00;;;;;;;6.21;100.00;98058.13;6209334;23;20001;-77
2023/01/08 09:27:38;;;;;;;0.00;0.00;;;;;;;6.14;100.00;98051.47;6208500;23;20012;-77
2023/01/08 09:30:06;;;;;;;0.00;0.00;;;;;;;6.15;100.00;98047.63;6203481;23;20464;-76
2023/01/08 09:32:44;;;;;;;;;;;;;;;;;;;;;
2023/01/08 09:35:10;;;;;;;0.03;0.03;;;;;;;6.09;100.00;98047.72;6208171;23;20084;-77
2023/01/08 09:37:47;;;;;;;0.00;0.00;;;;;;;6.02;100.00;98044.59;6208359;23;20063;-82
2023/01/08 09:40:15;;;;;;;0.00;0.00;;;;;;;5.92;100.00;98023.00;6213348;23;20005;-80
2023/01/08 09:42:41;;;;;;;0.00;0.00;;;;;;;5.91;100.00;98027.63;6215103;23;20008;-83
2023/01/08 09:45:15;;;;;;;0.00;0.00;;;;;;;6.01;100.00;98032.09;6185450;23;20301;-82
2023/01/08 09:47:43;;;;;;;0.00;0.00;;;;;;;5.94;100.00;98028.94;6215016;23;20017;-82
2023/01/08 09:50:24;;;;;;;0.00;0.00;;;;;;;6.02;100.00;98013.94;6211762;23;20066;-80
2023/01/08 09:52:53;;;;;;;0.00;0.00;;;;;;;6.01;100.00;98017.75;6190184;23;20088;-80
2023/01/08 09:55:19;;;;;;;0.00;0.00;;;;;;;5.99;100.00;98028.91;6207511;23;20005;-77
2023/01/08 09:57:46;;;;;;;0.00;0.00;;;;;;;5.79;100.00;98062.50;6210561;23;20017;-81
2023/01/08 10:00:25;;;;;;;0.00;0.00;;;;;;;5.51;100.00;98061.53;6217670;23;20035;-82
2023/01/08 10:03:23;;;;;;;;;;;;;;;;;;;;;
2023/01/08 10:05:40;;;;;;;0.03;0.03;;;;;;;5.75;100.00;98031.63;6202316;23;20432;-80
2023/01/08 10:08:11;;;;;;;0.00;0.00;;;;;;;6.50;100.00;98021.00;6215673;23;20000;-80
2023/01/08 10:10:37;;;;;;;0.00;0.00;;;;;;;7.86;100.00;98012.34;6212767;23;20004;-81
2023/01/08 10:13:03;;;;;;;0.00;0.00;;;;;;;9.57;100.00;98025.94;6207388;23;20001;-78
2023/01/08 10:15:29;;;;;;;0.00;0.00;;;;;;;10.42;100.00;97996.59;6187659;23;20487;-80
2023/01/08 10:18:10;;;;;;;0.10;0.10;;;;;;;11.43;100.00;98019.88;6184061;23;20020;-79
2023/01/08 10:20:43;;;;;;;0.00;0.00;;;;;;;10.59;100.00;98007.47;6214181;23;20031;-81
2023/01/08 10:23:11;;;;;;;0.10;0.10;;;;;;;11.35;100.00;98011.38;6209022;23;20004;-80
2023/01/08 10:33:14;;;;;;;0.00;0.00;;;;;;;11.84;100.00;98010.94;6078842;23;20021;-79
2023/01/08 10:36:03;;;;;;;0.00;0.00;;;;;;;10.52;100.00;98017.31;6071757;23;20017;-77
2023/01/08 10:48:50;;;;;;;0.00;0.00;;;;;;;14.24;100.00;97988.25;6061569;23;20050;-78
2023/01/08 10:51:27;;;;;;;0.00;0.00;;;;;;;12.93;100.00;97988.94;6093781;23;20014;-83
2023/01/08 10:53:54;;;;;;;0.00;0.00;;;;;;;10.99;100.00;97966.19;6164629;23;20009;-82
2023/01/08 10:56:47;;;;;;;0.00;0.00;;;;;;;13.93;100.00;97984.19;6212074;23;20023;-83
2023/01/08 10:59:24;;;;;;;0.10;0.10;;;;;;;15.73;100.00;97964.03;6197198;23;20015;-82
2023/01/08 11:01:58;;;;;;;0.00;0.00;;;;;;;16.02;96.43;97962.72;6214334;23;20070;-80
2023/01/08 11:04:51;;;;;;;0.10;0.10;;;;;;;14.58;100.00;97955.75;6209939;23;20004;-80
2023/01/08 11:07:27;;;;;;;0.00;0.00;;;;;;;11.84;100.00;97953.41;6211323;23;20012;-82
2023/01/08 11:09:56;;;;;;;0.00;0.00;;;;;;;10.08;100.00;97963.50;6217871;23;19996;-83
2023/01/08 11:12:45;;;;;;;0.03;0.03;;;;;;;8.77;100.00;97933.31;6214031;23;20001;-82
2023/01/08 11:15:16;;;;;;;0.10;0.10;;;;;;;8.07;100.00;97941.09;6187412;23;20009;-80
2023/01/08 11:17:42;;;;;;;0.00;0.00;;;;;;;7.60;100.00;97932.44;6206442;23;20012;-79
2023/01/08 11:20:29;;;;;;;0.00;0.00;;;;;;;7.27;100.00;97924.44;6183937;23;20039;-79
2023/01/08 11:23:07;;;;;;;0.00;0.00;;;;;;;7.09;100.00;97918.84;6209735;23;20023;-77
2023/01/08 11:25:37;;;;;;;0.00;0.00;;;;;;;7.01;100.00;97922.28;6212426;23;20327;-76
2023/01/08 11:28:04;;;;;;;0.00;0.00;;;;;;;6.93;100.00;97914.84;6180280;23;20074;-78
2023/01/08 11:30:32;;;;;;;0.10;0.10;;;;;;;6.79;100.00;97907.50;6184830;23;20012;-77
2023/01/08 11:33:05;;;;;;;0.10;0.10;;;;;;;6.73;100.00;97888.88;6205464;23;20720;-78
2023/01/08 11:35:45;;;;;;;0.00;0.00;;;;;;;6.64;100.00;97892.34;6209838;23;20004;-80
2023/01/08 11:38:12;;;;;;;0.10;0.10;;;;;;;6.56;100.00;97878.66;6207361;23;20054;-78
2023/01/08 11:40:48;;;;;;;0.00;0.00;;;;;;;6.58;100.00;97871.00;6186297;23;20043;-79
2023/01/08 11:46:44;;;;;;;0.00;0.00;;;;;;;6.69;100.00;97909.59;6213538;23;20008;-85
2023/01/08 11:49:35;;;;;;;0.00;0.00;;;;;;;6.52;100.00;97877.63;6214141;23;20020;-78
2023/01/08 11:52:10;;;;;;;0.10;0.10;;;;;;;6.46;100.00;97869.56;6155004;23;20035;-81
2023/01/08 11:54:47;;;;;;;0.10;0.10;;;;;;;6.44;100.00;97866.38;6214614;23;20005;-82
2023/01/08 11:57:37;;;;;;;0.00;0.00;;;;;;;6.37;100.00;97895.03;6212312;23;20015;-81
2023/01/08 12:00:43;;;;;;;0.00;0.00;;;;;;;6.27;100.00;97872.38;6212000;23;19996;-79
2023/01/08 12:03:36;;;;;;;0.00;0.00;;;;;;;6.32;100.00;97885.06;6162632;23;20043;-80
2023/01/08 12:06:30;;;;;;;;;;;;;;;;;;;;;
2023/01/08 12:09:09;;;;;;;0.00;0.00;;;;;;;6.41;100.00;97845.25;6215707;23;20096;-79
2023/01/08 12:11:57;;;;;;;0.00;0.00;;;;;;;6.70;100.00;97841.44;6213050;23;20023;-79
2023/01/08 12:14:43;;;;;;;0.10;0.10;;;;;;;6.55;100.00;97837.09;6210536;23;20559;-80
2023/01/08 12:17:58;;;;;;;0.10;0.10;;;;;;;6.54;100.00;97834.69;6213637;23;20000;-80
2023/01/08 12:20:28;;;;;;;0.10;0.10;;;;;;;6.33;100.00;97799.81;6209608;23;20005;-81
2023/01/08 12:23:06;;;;;;;0.00;0.00;;;;;;;6.36;100.00;97810.06;6214548;23;20050;-80
2023/01/08 12:26:09;;;;;;;0.10;0.10;;;;;;;6.39;100.00;97798.59;6213735;23;20442;-80
2023/01/08 12:28:59;;;;;;;0.00;0.00;;;;;;;6.54;100.00;97810.25;6213026;23;20016;-80
2023/01/08 12:31:49;;;;;;;0.10;0.10;;;;;;;6.55;100.00;97806.44;6212154;23;20011;-81
2023/01/08 12:34:40;;;;;;;0.00;0.00;;;;;;;6.54;100.00;97805.63;6214347;23;20024;-83
2023/01/08 12:37:43;;;;;;;0.00;0.00;;;;;;;6.65;100.00;97817.09;6215810;23;20083;-84
2023/01/08 12:40:23;;;;;;;0.10;0.10;;;;;;;6.75;100.00;97788.91;6216665;23;20015;-83
2023/01/08 12:42:49;;;;;;;0.00;0.00;;;;;;;7.01;100.00;97785.59;6215558;23;20435;-83
2023/01/08 12:45:46;;;;;;;0.00;0.00;;;;;;;6.93;100.00;97749.09;6192272;23;20008;-82
2023/01/08 12:48:22;;;;;;;0.10;0.10;;;;;;;7.04;100.00;97780.38;6210414;23;20024;-82
2023/01/08 12:51:18;;;;;;;0.10;0.10;;;;;;;6.96;100.00;97773.72;6220775;23;20004;-82
2023/01/08 12:53:46;;;;;;;0.00;0.00;;;;;;;6.97;100.00;97769.13;6251379;22;20005;-84
2023/01/08 12:56:33;;;;;;;0.00;0.00;;;;;;;6.90;100.00;97774.19;6234207;23;20027;-84
2023/01/08 12:59:07;;;;;;;0.03;0.03;;;;;;;6.99;100.00;97777.75;6238033;23;20024;-84
2023/01/08 13:01:45;;;;;;;0.00;0.00;;;;;;;7.10;100.00;97773.69;6234823;23;20017;-85